createdAt,value
2017-05-22T13:12:46.152Z,44
2017-05-22T13:13:54.244Z,40
2017-05-22T13:15:02.136Z,40
2017-05-22T13:16:10.356Z,36
2017-05-22T13:17:18.311Z,36
2017-05-22T13:18:26.461Z,32
2017-05-22T13:19:34.487Z,32
2017-05-22T13:20:42.572Z,40
2017-05-22T13:21:50.660Z,36
2017-05-22T13:22:58.749Z,40
2017-05-22T13:24:06.834Z,36
2017-05-22T13:25:14.928Z,32
2017-05-22T13:26:23.007Z,32
2017-05-22T13:27:31.091Z,32
2017-05-22T13:28:39.182Z,36
2017-05-22T13:29:47.273Z,32
2017-05-22T13:30:55.360Z,32
2017-05-22T13:32:03.447Z,36
2017-05-22T13:33:11.530Z,32
2017-05-22T13:34:19.618Z,36
2017-05-22T13:35:27.709Z,36
2017-05-22T13:36:35.792Z,36
2017-05-22T13:37:43.888Z,32
2017-05-22T13:38:51.965Z,32
2017-05-22T13:40:00.083Z,32
2017-05-22T13:41:08.141Z,28
2017-05-22T13:42:16.229Z,32
2017-05-22T13:43:24.316Z,32
2017-05-22T13:44:32.405Z,36
2017-05-22T13:45:40.490Z,28
2017-05-22T13:46:48.579Z,28
2017-05-22T13:47:56.685Z,28
2017-05-22T13:49:04.790Z,28
2017-05-22T13:50:12.838Z,28
2017-05-22T13:51:20.927Z,28
2017-05-22T13:52:29.067Z,32
2017-05-22T13:53:37.101Z,32
2017-05-22T13:54:45.214Z,32
2017-05-22T13:55:53.274Z,32
2017-05-22T13:57:01.362Z,28
2017-05-22T13:58:09.451Z,32
2017-05-22T13:59:17.537Z,28
2017-05-22T14:00:25.630Z,28
2017-05-22T14:01:33.741Z,28
2017-05-22T14:02:41.814Z,28
2017-05-22T14:03:49.897Z,28
2017-05-22T14:04:57.981Z,28
2017-05-22T14:06:06.095Z,36
2017-05-22T14:07:14.210Z,32
2017-05-22T14:08:22.410Z,32
2017-05-22T14:09:30.331Z,32
2017-05-22T14:10:39.079Z,32
2017-05-22T14:11:46.506Z,32
2017-05-22T14:12:54.593Z,32
2017-05-22T14:14:02.820Z,28
2017-05-22T14:15:10.767Z,28
2017-05-22T14:16:18.856Z,28
2017-05-22T14:17:26.948Z,32
2017-05-22T14:18:35.296Z,28
2017-05-22T14:19:43.117Z,32
2017-05-22T14:20:51.211Z,28
2017-05-22T14:21:59.291Z,28
2017-05-22T14:23:07.379Z,32
2017-05-22T14:24:15.474Z,28
2017-05-22T14:25:23.551Z,28
2017-05-22T14:26:31.663Z,28
2017-05-22T14:27:39.727Z,28
2017-05-22T14:28:47.841Z,24
2017-05-22T14:29:55.911Z,24
2017-05-22T14:31:03.997Z,28
2017-05-22T14:32:12.077Z,28
2017-05-22T14:33:20.165Z,28
2017-05-22T14:34:28.251Z,28
2017-05-22T14:35:36.342Z,24
2017-05-22T14:36:44.429Z,24
2017-05-22T14:37:52.521Z,24
2017-05-22T14:39:00.610Z,24
2017-05-22T14:40:08.706Z,24
2017-05-22T14:41:16.908Z,24
2017-05-22T14:42:24.897Z,24
2017-05-22T14:43:32.986Z,24
2017-05-22T14:44:41.194Z,24
2017-05-22T14:45:49.158Z,20
2017-05-22T14:46:57.244Z,24
2017-05-22T14:48:05.332Z,24
2017-05-22T14:49:13.417Z,24
2017-05-22T14:50:21.509Z,24
2017-05-22T14:51:29.619Z,24
2017-05-22T14:52:37.707Z,20
2017-05-22T14:53:45.775Z,28
2017-05-22T14:54:53.857Z,16
2017-05-22T14:56:01.952Z,28
2017-05-22T14:57:10.032Z,20
2017-05-22T14:58:18.119Z,20
2017-05-22T14:59:26.210Z,24
2017-05-22T15:00:34.294Z,20
2017-05-22T15:01:42.382Z,24
2017-05-22T15:02:50.471Z,24
2017-05-22T15:03:58.555Z,20
2017-05-22T15:05:06.666Z,12
2017-05-22T15:06:14.731Z,28
2017-05-22T15:07:22.831Z,12
2017-05-22T15:08:30.903Z,12
2017-05-22T15:09:38.991Z,20
2017-05-22T15:10:47.088Z,16
2017-05-22T15:11:55.171Z,12
2017-05-22T15:13:03.259Z,28
2017-05-22T15:14:11.348Z,16
2017-05-22T15:15:19.434Z,24
2017-05-22T15:16:27.523Z,24
2017-05-22T15:17:35.608Z,16
2017-05-22T15:18:43.817Z,20
2017-05-22T15:19:51.821Z,24
2017-05-22T15:20:59.882Z,24
2017-05-22T15:22:07.962Z,20
2017-05-22T15:23:16.046Z,24
2017-05-22T15:24:24.138Z,12
2017-05-22T15:25:32.228Z,12
2017-05-22T15:26:40.309Z,20
2017-05-22T15:27:48.400Z,20
2017-05-22T15:28:56.484Z,24
2017-05-22T15:30:04.572Z,20
2017-05-22T15:31:12.668Z,20
2017-05-22T15:32:20.753Z,24
2017-05-22T15:33:28.842Z,20
2017-05-22T15:34:36.928Z,20
2017-05-22T15:35:45.018Z,24
2017-05-22T15:36:53.129Z,20
2017-05-22T15:38:01.207Z,16
2017-05-22T15:39:09.288Z,16
2017-05-22T15:40:17.374Z,16
2017-05-22T15:41:25.465Z,16
2017-05-22T15:42:33.551Z,28
2017-05-22T15:43:41.637Z,24
2017-05-22T15:44:49.725Z,24
2017-05-22T15:45:57.862Z,24
2017-05-22T15:47:05.900Z,20
2017-05-22T15:48:14.013Z,12
2017-05-22T15:49:22.075Z,12
2017-05-22T15:50:30.170Z,12
2017-05-22T15:51:38.251Z,20
2017-05-22T15:52:46.336Z,20
2017-05-22T15:53:54.425Z,20
2017-05-22T15:55:02.512Z,16
2017-05-22T15:56:10.598Z,12
2017-05-22T15:57:18.687Z,20
2017-05-22T15:58:26.776Z,12
2017-05-22T15:59:34.862Z,12
2017-05-22T16:00:42.951Z,20
2017-05-22T16:01:51.037Z,20
2017-05-22T16:02:59.126Z,20
2017-05-22T16:04:07.212Z,20
2017-05-22T16:05:15.299Z,24
2017-05-22T16:06:23.387Z,20
2017-05-22T16:07:31.481Z,20
2017-05-22T16:08:39.570Z,20
2017-05-22T16:09:47.669Z,20
2017-05-22T16:10:56.395Z,20
2017-05-22T16:12:03.953Z,20
2017-05-22T16:13:11.919Z,8
2017-05-22T16:14:20.008Z,8
2017-05-22T16:15:28.101Z,12
2017-05-22T16:16:36.182Z,20
2017-05-22T16:17:44.270Z,8
2017-05-22T16:18:52.359Z,8
2017-05-22T16:20:00.445Z,12
2017-05-22T16:21:08.533Z,8
2017-05-22T16:22:16.622Z,8
2017-05-22T16:23:24.734Z,8
2017-05-22T16:24:32.796Z,8
2017-05-22T16:25:40.889Z,8
2017-05-22T16:26:48.976Z,8
2017-05-22T16:27:57.061Z,12
2017-05-22T16:29:05.147Z,8
2017-05-22T16:30:13.236Z,8
2017-05-22T16:31:21.324Z,8
2017-05-22T16:32:29.410Z,8
2017-05-22T16:33:37.498Z,8
2017-05-22T16:34:45.584Z,8
2017-05-22T16:35:53.697Z,8
2017-05-22T16:37:01.768Z,8
2017-05-22T16:38:09.849Z,8
2017-05-22T16:39:17.936Z,4
2017-05-22T16:40:26.022Z,8
2017-05-22T16:41:34.116Z,8
2017-05-22T16:42:42.198Z,8
2017-05-22T16:43:50.287Z,8
2017-05-22T16:44:58.373Z,4
2017-05-22T16:46:06.463Z,8
2017-05-22T16:47:14.552Z,8
2017-05-22T16:48:22.644Z,16
2017-05-22T16:49:30.726Z,16
2017-05-22T16:50:38.819Z,16
2017-05-22T16:51:46.900Z,16
2017-05-22T16:52:54.989Z,16
2017-05-22T16:54:03.077Z,16
2017-05-22T16:55:11.165Z,16
2017-05-22T16:56:19.257Z,16
2017-05-22T16:57:27.341Z,20
2017-05-22T16:58:35.429Z,16
2017-05-22T16:59:43.517Z,20
2017-05-22T17:00:51.623Z,20
2017-05-22T17:01:59.691Z,24
2017-05-22T17:03:07.780Z,20
2017-05-22T17:04:15.867Z,16
2017-05-22T17:05:23.955Z,16
2017-05-22T17:06:32.043Z,16
2017-05-22T17:07:40.188Z,16
2017-05-22T17:08:48.217Z,16
2017-05-22T17:09:56.309Z,16
2017-05-22T17:11:04.392Z,16
2017-05-22T17:12:12.479Z,20
2017-05-22T17:13:20.572Z,20
2017-05-22T17:14:28.659Z,16
2017-05-22T17:15:36.754Z,20
2017-05-22T17:16:44.833Z,16
2017-05-22T17:17:52.925Z,20
2017-05-22T17:19:01.015Z,20
2017-05-22T17:20:09.097Z,20
2017-05-22T17:21:17.183Z,16
2017-05-22T17:22:25.270Z,20
2017-05-22T17:23:33.359Z,20
2017-05-22T17:24:41.446Z,20
2017-05-22T17:25:49.535Z,24
2017-05-22T17:26:57.622Z,20
2017-05-22T17:28:05.712Z,24
2017-05-22T17:29:13.796Z,20
2017-05-22T17:30:21.887Z,24
2017-05-22T17:31:30.033Z,24
2017-05-22T17:32:38.061Z,24
2017-05-22T17:33:46.149Z,24
2017-05-22T17:34:54.240Z,24
2017-05-22T17:36:02.329Z,16
2017-05-22T17:37:10.414Z,16
2017-05-22T17:38:18.505Z,12
2017-05-22T17:39:26.585Z,12
2017-05-22T17:40:34.681Z,8
2017-05-22T17:41:42.763Z,8
2017-05-22T17:42:50.849Z,8
2017-05-22T17:43:58.937Z,8
2017-05-22T17:45:07.026Z,8
2017-05-22T17:46:15.174Z,12
2017-05-22T17:47:23.200Z,12
2017-05-22T17:48:31.290Z,8
2017-05-22T17:49:39.382Z,8
2017-05-22T17:50:47.469Z,8
2017-05-22T17:51:55.558Z,4
2017-05-22T17:53:03.651Z,4
2017-05-22T17:54:11.735Z,8
2017-05-22T17:55:19.870Z,4
2017-05-22T17:56:27.910Z,4
2017-05-22T17:57:35.996Z,4
2017-05-22T17:58:44.084Z,4
2017-05-22T17:59:52.174Z,4
2017-05-22T18:01:00.259Z,4
2017-05-22T18:02:08.348Z,4
2017-05-22T18:03:16.438Z,4
2017-05-22T18:04:24.523Z,4
2017-05-22T18:05:32.612Z,4
2017-05-22T18:06:40.728Z,4
2017-05-22T18:07:48.865Z,0
2017-05-22T18:08:56.875Z,4
2017-05-22T18:10:04.962Z,4
2017-05-22T18:11:13.051Z,4
2017-05-22T18:12:21.204Z,0
2017-05-22T18:13:29.229Z,4
2017-05-22T18:14:37.318Z,4
2017-05-22T18:15:45.401Z,0
2017-05-22T18:16:53.489Z,4
2017-05-22T18:18:01.576Z,4
2017-05-22T18:19:09.671Z,4
2017-05-22T18:20:17.762Z,0
2017-05-22T18:21:25.846Z,4
2017-05-22T18:22:33.941Z,4
2017-05-22T18:23:42.040Z,0
2017-05-22T18:24:50.113Z,0
2017-05-22T18:25:58.210Z,4
2017-05-22T18:27:06.303Z,4
2017-05-22T18:28:14.383Z,4
2017-05-22T18:29:22.544Z,0
2017-05-22T18:30:30.561Z,0
2017-05-22T18:31:38.642Z,0
2017-05-22T18:32:46.730Z,0
2017-05-22T18:33:54.815Z,0
2017-05-22T18:35:02.902Z,0
2017-05-22T18:36:10.992Z,0
2017-05-22T18:37:19.084Z,0
2017-05-22T18:38:27.173Z,0
2017-05-22T18:39:35.262Z,0
2017-05-22T18:40:43.350Z,0
2017-05-22T18:41:51.437Z,4
2017-05-22T18:42:59.525Z,4
2017-05-22T18:44:07.611Z,4
2017-05-22T18:45:15.699Z,4
2017-05-22T18:46:24.204Z,0
2017-05-22T18:47:31.878Z,0
2017-05-22T18:48:39.963Z,0
2017-05-22T18:49:48.063Z,0
2017-05-22T18:50:56.138Z,0
2017-05-22T18:52:04.225Z,0
2017-05-22T18:53:12.316Z,0
2017-05-22T18:54:20.399Z,0
2017-05-22T18:55:28.489Z,0
2017-05-22T18:56:36.580Z,0
2017-05-22T18:57:44.668Z,0
2017-05-22T18:58:52.766Z,0
2017-05-22T19:00:01.022Z,0
2017-05-22T19:01:08.944Z,0
2017-05-22T19:02:17.027Z,0
2017-05-22T19:03:25.113Z,0
2017-05-22T19:04:33.200Z,0
2017-05-22T19:05:41.289Z,0
2017-05-22T19:06:49.381Z,0
2017-05-22T19:07:57.467Z,0
2017-05-22T19:09:05.553Z,0
2017-05-22T19:10:13.652Z,0
2017-05-22T19:11:21.730Z,0
2017-05-22T19:12:29.831Z,0
2017-05-22T19:13:37.916Z,0
2017-05-22T19:14:45.994Z,0
2017-05-22T19:15:54.084Z,0
2017-05-22T19:17:02.167Z,0
2017-05-22T19:18:10.259Z,0
2017-05-22T19:19:18.345Z,0
2017-05-22T19:20:26.439Z,0
2017-05-22T19:21:34.521Z,0
2017-05-22T19:22:42.633Z,0
2017-05-22T19:23:50.709Z,0
2017-05-22T19:24:58.784Z,0
2017-05-22T19:26:06.871Z,0
2017-05-22T19:27:14.958Z,0
2017-05-22T19:28:23.048Z,0
2017-05-22T19:29:31.135Z,0
2017-05-22T19:30:39.220Z,0
2017-05-22T19:31:47.307Z,0
2017-05-22T19:32:55.399Z,0
2017-05-22T19:34:03.538Z,0
2017-05-22T19:35:11.571Z,0
2017-05-22T19:36:19.656Z,0
2017-05-22T19:37:27.741Z,0
2017-05-22T19:38:35.829Z,0
2017-05-22T19:39:43.917Z,0
2017-05-22T19:40:52.008Z,0
2017-05-22T19:42:00.129Z,0
2017-05-22T19:43:08.183Z,0
2017-05-22T19:44:16.267Z,0
2017-05-22T19:45:24.360Z,0
2017-05-22T19:46:32.445Z,0
2017-05-22T19:47:40.532Z,0
2017-05-22T19:48:48.622Z,0
2017-05-22T19:49:56.708Z,0
2017-05-22T19:51:04.797Z,0
2017-05-22T19:52:12.910Z,0
2017-05-22T19:53:20.970Z,0
2017-05-22T19:54:29.067Z,0
2017-05-22T19:55:37.146Z,0
2017-05-22T19:56:45.230Z,0
2017-05-22T19:57:53.318Z,0
2017-05-22T19:59:01.509Z,0
2017-05-22T20:00:09.498Z,0
2017-05-22T20:01:17.586Z,0
2017-05-22T20:02:25.678Z,0
2017-05-22T20:03:33.764Z,0
2017-05-22T20:04:41.850Z,0
2017-05-22T20:05:49.936Z,0
2017-05-22T20:06:58.021Z,0
2017-05-22T20:08:06.112Z,0
2017-05-22T20:09:14.202Z,0
2017-05-22T20:10:22.292Z,0
2017-05-22T20:11:30.380Z,0
2017-05-22T20:12:38.464Z,0
2017-05-22T20:13:46.552Z,0
2017-05-22T20:14:54.641Z,0
2017-05-22T20:16:02.730Z,0
2017-05-22T20:17:10.816Z,0
2017-05-22T20:18:18.929Z,0
2017-05-22T20:19:26.991Z,0
2017-05-22T20:20:35.078Z,0
2017-05-22T20:21:43.165Z,0
2017-05-22T20:22:51.254Z,0
2017-05-22T20:24:00.025Z,0
2017-05-22T20:25:07.460Z,0
2017-05-22T20:26:15.513Z,0
2017-05-22T20:27:23.600Z,0
2017-05-22T20:28:31.717Z,0
2017-05-22T20:29:39.774Z,0
2017-05-22T20:30:47.860Z,0
2017-05-22T20:31:56.004Z,0
2017-05-22T20:33:04.076Z,0
2017-05-22T20:34:12.123Z,0
2017-05-22T20:35:20.208Z,0
2017-05-22T20:36:28.302Z,0
2017-05-22T20:37:36.383Z,0
2017-05-22T20:38:44.469Z,0
2017-05-22T20:39:52.556Z,0
2017-05-22T20:41:00.642Z,0
2017-05-22T20:42:08.730Z,0
2017-05-22T20:43:16.816Z,0
2017-05-22T20:44:24.935Z,0
2017-05-22T20:45:32.990Z,0
2017-05-22T20:46:41.081Z,0
2017-05-22T20:47:49.163Z,0
2017-05-22T20:48:57.268Z,0
2017-05-22T20:50:05.355Z,0
2017-05-22T20:51:13.442Z,0
2017-05-22T20:52:21.528Z,0
2017-05-22T20:53:29.620Z,0
2017-05-22T20:54:37.764Z,0
2017-05-22T20:55:45.798Z,0
2017-05-22T20:56:53.876Z,0
2017-05-22T20:58:01.963Z,0
2017-05-22T20:59:10.053Z,0
2017-05-22T21:00:18.141Z,0
2017-05-22T21:01:26.226Z,0
2017-05-22T21:02:34.320Z,0
2017-05-22T21:03:42.397Z,0
2017-05-22T21:04:50.489Z,0
2017-05-22T21:05:58.578Z,0
2017-05-22T21:07:06.665Z,0
2017-05-22T21:08:14.749Z,0
2017-05-22T21:09:22.836Z,0
2017-05-22T21:10:30.924Z,0
2017-05-22T21:11:39.017Z,0
2017-05-22T21:12:47.097Z,0
2017-05-22T21:13:55.191Z,0
2017-05-22T21:15:03.272Z,0
2017-05-22T21:16:11.398Z,0
2017-05-22T21:17:19.445Z,0
2017-05-22T21:18:27.590Z,0
2017-05-22T21:19:35.621Z,0
2017-05-22T21:20:43.710Z,0
2017-05-22T21:21:51.794Z,0
2017-05-22T21:22:59.906Z,0
2017-05-22T21:24:07.968Z,0
2017-05-22T21:25:16.055Z,0
2017-05-22T21:26:24.139Z,0
2017-05-22T21:27:32.227Z,0
2017-05-22T21:28:40.315Z,0
2017-05-22T21:29:48.401Z,0
2017-05-22T21:30:56.488Z,0
2017-05-22T21:32:04.580Z,0
2017-05-22T21:33:12.687Z,0
2017-05-22T21:34:20.869Z,0
2017-05-22T21:35:28.835Z,0
2017-05-22T21:36:36.920Z,0
2017-05-22T21:37:45.011Z,0
2017-05-22T21:38:53.094Z,0
2017-05-22T21:40:01.186Z,0
2017-05-22T21:41:09.268Z,0
2017-05-22T21:42:17.362Z,0
2017-05-22T21:43:25.450Z,0
2017-05-22T21:44:33.537Z,0
2017-05-22T21:45:41.624Z,0
2017-05-22T21:46:49.717Z,0
2017-05-22T21:47:57.806Z,0
2017-05-22T21:49:05.886Z,0
2017-05-22T21:50:13.970Z,0
2017-05-22T21:51:22.057Z,0
2017-05-22T21:52:30.145Z,0
2017-05-22T21:53:38.230Z,0
2017-05-22T21:54:46.321Z,0
2017-05-22T21:55:54.402Z,0
2017-05-22T21:57:02.490Z,0
2017-05-22T21:58:10.576Z,0
2017-05-22T21:59:18.663Z,0
2017-05-22T22:00:26.780Z,0
2017-05-22T22:01:34.839Z,0
2017-05-22T22:02:42.924Z,0
2017-05-22T22:03:51.025Z,0
2017-05-22T22:04:59.110Z,0
2017-05-22T22:06:07.193Z,0
2017-05-22T22:07:15.282Z,0
2017-05-22T22:08:23.366Z,0
2017-05-22T22:09:31.451Z,0
2017-05-22T22:10:39.540Z,0
2017-05-22T22:11:47.624Z,0
2017-05-22T22:12:55.731Z,0
2017-05-22T22:14:03.808Z,0
2017-05-22T22:15:11.928Z,0
2017-05-22T22:16:19.971Z,0
2017-05-22T22:17:28.060Z,0
2017-05-22T22:18:36.150Z,0
2017-05-22T22:19:44.231Z,0
2017-05-22T22:20:52.322Z,0
2017-05-22T22:22:00.405Z,0
2017-05-22T22:23:08.490Z,0
2017-05-22T22:24:16.575Z,0
2017-05-22T22:25:24.666Z,0
2017-05-22T22:26:32.751Z,0
2017-05-22T22:27:40.838Z,0
2017-05-22T22:28:48.930Z,0
2017-05-22T22:29:57.012Z,0
2017-05-22T22:31:05.098Z,0
2017-05-22T22:32:13.202Z,0
2017-05-22T22:33:21.271Z,0
2017-05-22T22:34:29.358Z,0
2017-05-22T22:35:37.444Z,0
2017-05-22T22:36:45.535Z,0
2017-05-22T22:37:53.618Z,0
2017-05-22T22:39:01.707Z,0
2017-05-22T22:40:09.791Z,0
2017-05-22T22:41:17.878Z,0
2017-05-22T22:42:25.965Z,0
2017-05-22T22:43:34.050Z,0
2017-05-22T22:44:42.136Z,0
2017-05-22T22:45:50.223Z,0
2017-05-22T22:46:58.314Z,0
2017-05-22T22:48:06.396Z,0
2017-05-22T22:49:14.487Z,0
2017-05-22T22:50:22.572Z,0
2017-05-22T22:51:30.660Z,0
2017-05-22T22:52:38.754Z,0
2017-05-22T22:53:46.836Z,0
2017-05-22T22:54:54.921Z,0
2017-05-22T22:56:03.002Z,0
2017-05-22T22:57:11.151Z,0
2017-05-22T22:58:19.175Z,0
2017-05-22T22:59:27.262Z,0
2017-05-22T23:00:35.349Z,0
2017-05-22T23:01:43.435Z,0
2017-05-22T23:02:51.519Z,0
2017-05-22T23:03:59.607Z,0
2017-05-22T23:05:07.694Z,0
2017-05-22T23:06:15.794Z,0
2017-05-22T23:07:23.872Z,0
2017-05-22T23:08:31.968Z,0
2017-05-22T23:09:40.046Z,0
2017-05-22T23:10:48.137Z,0
2017-05-22T23:11:56.226Z,0
2017-05-22T23:13:04.312Z,0
2017-05-22T23:14:12.449Z,0
2017-05-22T23:15:20.485Z,0
2017-05-22T23:16:28.571Z,0
2017-05-22T23:17:36.683Z,0
2017-05-22T23:18:44.744Z,0
2017-05-22T23:19:52.855Z,0
2017-05-22T23:21:00.916Z,0
2017-05-22T23:22:09.001Z,0
2017-05-22T23:23:17.093Z,0
2017-05-22T23:24:25.174Z,0
2017-05-22T23:25:33.269Z,0
2017-05-22T23:26:41.349Z,0
2017-05-22T23:27:49.438Z,0
2017-05-22T23:28:57.529Z,0
2017-05-22T23:30:05.614Z,0
2017-05-22T23:31:13.700Z,0
2017-05-22T23:32:21.795Z,0
2017-05-22T23:33:29.882Z,0
2017-05-22T23:34:38.007Z,0
2017-05-22T23:35:46.066Z,0
2017-05-22T23:36:54.133Z,0
2017-05-22T23:38:02.220Z,0
2017-05-22T23:39:10.306Z,0
2017-05-22T23:40:18.389Z,0
2017-05-22T23:41:26.768Z,0
2017-05-22T23:42:34.587Z,0
2017-05-22T23:43:42.656Z,0
2017-05-22T23:44:50.742Z,0
2017-05-22T23:45:58.830Z,0
2017-05-22T23:47:06.924Z,0
2017-05-22T23:48:15.003Z,0
2017-05-22T23:49:23.087Z,0
2017-05-22T23:50:31.174Z,0
2017-05-22T23:51:39.261Z,0
2017-05-22T23:52:47.355Z,0
2017-05-22T23:53:55.438Z,0
2017-05-22T23:55:03.524Z,0
2017-05-22T23:56:11.607Z,0
2017-05-22T23:57:19.706Z,0
2017-05-22T23:58:27.778Z,0
2017-05-22T23:59:35.863Z,0
